シカゴ/オヘア の空港の天気 - METARとTAF

シカゴ・オヘア国際空港 ( KORD / ORD ) - アメリカ イリノイ州シカゴ
飛行場実況気象(Metar)
観測時間11/30 09:51 CST (11/30 15:51 UTC)
風向・風速西 7m/s 瞬間風速15m/s
視程10km以上
天気現象
全天の8割程度の雲 雲底高度 760m
気温-3.3℃
湿度60%
気圧1015.9hPa
METARKORD 301551Z 27013G30KT 10SM BKN025 M03/M10 A2998 RMK AO2 PK WND 28033/1540 SLP159 T10331100
過去の天気等 Google飛行場航空写真 Wunderground天気予報

過去48時間のMETAR

飛行場予報(TAF)
発表時間: 11/30 09:00 CST (11/30 15:00 UTC)
予報対象時間: 30日9時 CST ~ 1日12時 CST
風向・風速西 11m/s 瞬間風速 17m/s
視程10km以上
全天の8割程度の雲 雲底高度 730m
30日12時 CST から
風向・風速西 11m/s 瞬間風速 18m/s
視程10km以上
全天の8割程度の雲 雲底高度 1070m
30日22時 CST から
風向・風速西 7m/s 瞬間風速 11m/s
視程10km以上
なし
1日3時 CST から
風向・風速西 5m/s
視程10km以上
少しの雲 雲底高度 7620m
KORD 301500Z 3015/0118 27021G33KT P6SM BKN024
FM301800 27022G35KT P6SM BKN035
FM010400 28013G22KT P6SM SKC
FM010900 26009KT P6SM FEW250